createdAt,value
2023-05-20T00:01:39.301Z,73.36
2023-05-20T00:04:06.250Z,73.25
2023-05-20T00:06:33.686Z,73.19
2023-05-20T00:09:00.424Z,72.89
2023-05-20T00:11:27.102Z,73.01
2023-05-20T00:13:53.673Z,72.86
2023-05-20T00:16:20.236Z,72.07
2023-05-20T00:18:46.836Z,72.58
2023-05-20T00:21:13.471Z,72.67
2023-05-20T00:23:40.111Z,72.64
2023-05-20T00:26:06.651Z,72.36
2023-05-20T00:28:33.212Z,72.35
2023-05-20T00:30:59.840Z,72.29
2023-05-20T00:33:26.380Z,72.35
2023-05-20T00:35:52.963Z,71.79
2023-05-20T00:38:19.483Z,71.62
2023-05-20T00:40:46.101Z,71.57
2023-05-20T00:43:12.789Z,71.40
2023-05-20T00:45:39.722Z,71.37
2023-05-20T00:48:06.916Z,71.65
2023-05-20T00:50:34.012Z,71.42
2023-05-20T00:53:00.841Z,71.41
2023-05-20T00:55:27.418Z,71.14
2023-05-20T00:57:54.274Z,71.24
2023-05-20T01:00:20.883Z,71.22
2023-05-20T01:02:47.683Z,71.07
2023-05-20T01:05:14.309Z,71.28
2023-05-20T01:07:41.154Z,71.40
2023-05-20T01:10:08.408Z,71.43
2023-05-20T01:12:49.392Z,71.70
2023-05-20T01:15:16.568Z,71.48
2023-05-20T01:17:47.383Z,71.69
2023-05-20T01:20:14.796Z,71.60
2023-05-20T01:22:48.046Z,71.73
2023-05-20T01:25:14.634Z,71.97
2023-05-20T01:27:41.471Z,72.19
2023-05-20T01:30:08.698Z,72.18
2023-05-20T01:32:38.552Z,72.30
2023-05-20T01:35:06.644Z,72.69
2023-05-20T01:37:34.909Z,72.76
2023-05-20T01:40:01.668Z,72.98
2023-05-20T01:42:28.618Z,73.19
2023-05-20T01:44:55.177Z,73.10
2023-05-20T01:47:21.716Z,72.64
2023-05-20T01:49:49.512Z,73.12
2023-05-20T01:52:16.448Z,73.53
2023-05-20T01:54:43.057Z,73.54
2023-05-20T01:57:09.600Z,73.32
2023-05-20T01:59:36.211Z,73.46
2023-05-20T02:02:03.118Z,74.03
2023-05-20T02:04:29.793Z,74.19
2023-05-20T02:06:56.388Z,74.41
2023-05-20T02:09:22.949Z,74.52
2023-05-20T02:11:49.668Z,74.44
2023-05-20T02:14:16.223Z,74.59
2023-05-20T02:16:42.761Z,74.77
2023-05-20T02:19:12.893Z,75.44
2023-05-20T02:21:41.348Z,75.25
2023-05-20T02:24:08.280Z,75.59
2023-05-20T02:26:35.040Z,75.90
2023-05-20T02:29:01.635Z,75.66
2023-05-20T02:31:28.270Z,75.81
2023-05-20T02:33:55.003Z,76.05
2023-05-20T02:36:21.804Z,75.96
2023-05-20T02:38:48.627Z,76.25
2023-05-20T02:41:15.193Z,76.28
2023-05-20T02:43:41.795Z,76.69
2023-05-20T02:46:08.351Z,76.43
2023-05-20T02:48:34.914Z,76.30
2023-05-20T02:51:01.612Z,76.08
2023-05-20T02:55:54.839Z,75.92
2023-05-20T02:58:26.263Z,75.74
2023-05-20T03:00:53.354Z,75.89
2023-05-20T03:03:19.962Z,75.90
2023-05-20T03:05:46.678Z,75.72
2023-05-20T03:08:13.508Z,75.57
2023-05-20T03:10:40.157Z,75.72
2023-05-20T03:13:09.095Z,75.47
2023-05-20T03:15:36.370Z,75.71
2023-05-20T03:18:03.535Z,75.41
2023-05-20T03:20:30.660Z,75.85
2023-05-20T03:22:57.218Z,75.75
2023-05-20T03:25:24.917Z,75.74
2023-05-20T03:27:51.530Z,75.58
2023-05-20T03:30:18.121Z,75.91
2023-05-20T03:32:44.863Z,76.01
2023-05-20T03:35:11.666Z,75.94
2023-05-20T03:37:38.251Z,75.96
2023-05-20T03:40:09.282Z,76.02
2023-05-20T03:42:36.518Z,76.27
2023-05-20T03:45:03.531Z,76.17
2023-05-20T03:47:30.386Z,76.07
2023-05-20T03:49:57.066Z,76.40
2023-05-20T03:52:23.606Z,76.54
2023-05-20T03:54:50.177Z,76.98
2023-05-20T03:57:16.754Z,77.11
2023-05-20T03:59:43.266Z,77.11
2023-05-20T04:02:09.869Z,77.25
2023-05-20T04:04:36.675Z,77.57
2023-05-20T04:07:04.983Z,77.56
2023-05-20T04:09:31.606Z,77.43
2023-05-20T04:11:58.324Z,77.71
2023-05-20T04:14:24.892Z,77.51
2023-05-20T04:16:52.524Z,77.88
2023-05-20T04:19:24.277Z,77.87
2023-05-20T04:21:51.068Z,77.65
2023-05-20T04:24:17.605Z,77.74
2023-05-20T04:26:44.643Z,77.23
2023-05-20T04:29:11.948Z,77.07
2023-05-20T04:31:38.621Z,76.74
2023-05-20T04:34:05.415Z,76.54
2023-05-20T04:36:32.478Z,76.38
2023-05-20T04:38:59.044Z,76.26
2023-05-20T04:41:25.688Z,76.06
2023-05-20T04:43:52.256Z,76.06
2023-05-20T04:46:20.490Z,76.19
2023-05-20T04:48:48.081Z,76.39
2023-05-20T04:51:14.668Z,76.15
2023-05-20T04:53:41.273Z,76.14
2023-05-20T04:56:08.522Z,76.12
2023-05-20T04:58:35.426Z,76.44
2023-05-20T05:01:02.702Z,76.37
2023-05-20T05:03:29.535Z,76.48
2023-05-20T05:05:57.718Z,76.56
2023-05-20T05:08:24.773Z,76.86
2023-05-20T05:10:51.373Z,76.88
2023-05-20T05:13:18.043Z,76.42
2023-05-20T05:15:44.797Z,76.34
2023-05-20T05:18:11.643Z,76.59
2023-05-20T05:20:38.328Z,76.42
2023-05-20T05:23:04.927Z,76.38
2023-05-20T05:25:31.707Z,76.25
2023-05-20T05:27:58.498Z,76.11
2023-05-20T05:30:25.191Z,75.54
2023-05-20T05:32:51.918Z,75.24
2023-05-20T05:35:19.126Z,74.33
2023-05-20T05:37:45.831Z,74.86
2023-05-20T05:40:12.749Z,74.49
2023-05-20T05:42:39.349Z,74.45
2023-05-20T05:45:06.532Z,74.20
2023-05-20T05:47:33.203Z,74.09
2023-05-20T05:50:00.093Z,73.81
2023-05-20T05:52:27.425Z,73.94
2023-05-20T05:54:54.298Z,73.63
2023-05-20T05:57:20.856Z,73.06
2023-05-20T05:59:47.403Z,72.96
2023-05-20T06:02:14.769Z,73.20
2023-05-20T06:04:41.741Z,73.21
2023-05-20T06:07:08.454Z,73.39
2023-05-20T06:09:35.258Z,72.52
2023-05-20T06:12:02.596Z,72.00
2023-05-20T06:14:29.197Z,70.97
2023-05-20T06:16:56.052Z,70.31
2023-05-20T06:19:22.767Z,69.74
2023-05-20T06:21:49.535Z,68.89
2023-05-20T06:24:16.215Z,69.11
2023-05-20T06:26:42.929Z,68.62
2023-05-20T06:29:09.478Z,68.79
2023-05-20T06:31:36.148Z,68.08
2023-05-20T06:34:02.721Z,67.85
2023-05-20T06:36:29.743Z,67.59
2023-05-20T06:38:57.270Z,67.01
2023-05-20T06:41:23.810Z,66.53
2023-05-20T06:43:53.229Z,66.74
2023-05-20T06:46:20.229Z,66.15
2023-05-20T06:48:46.868Z,66.46
2023-05-20T06:51:14.043Z,66.40
2023-05-20T06:53:42.910Z,65.72
2023-05-20T06:56:09.476Z,65.80
2023-05-20T06:58:36.054Z,65.56
2023-05-20T07:01:02.664Z,65.06
2023-05-20T07:03:29.197Z,64.76
2023-05-20T07:05:55.794Z,64.64
2023-05-20T07:08:22.418Z,63.75
2023-05-20T07:10:48.973Z,63.19
2023-05-20T07:13:15.522Z,63.17
2023-05-20T07:15:42.151Z,62.72
2023-05-20T07:18:08.823Z,62.13
2023-05-20T07:20:36.186Z,61.95
2023-05-20T07:23:04.131Z,61.54
2023-05-20T07:25:30.739Z,61.65
2023-05-20T07:27:57.368Z,61.52
2023-05-20T07:30:24.043Z,61.26
2023-05-20T07:32:50.638Z,60.60
2023-05-20T07:35:17.225Z,60.38
2023-05-20T07:37:43.763Z,60.56
2023-05-20T07:40:10.937Z,60.62
2023-05-20T07:42:37.541Z,59.55
2023-05-20T07:45:04.266Z,58.85
2023-05-20T07:47:32.550Z,59.11
2023-05-20T07:49:59.274Z,59.17
2023-05-20T07:52:25.876Z,58.29
2023-05-20T07:54:52.395Z,57.91
2023-05-20T07:57:19.084Z,57.04
2023-05-20T07:59:45.778Z,56.35
2023-05-20T08:02:12.365Z,56.21
2023-05-20T08:04:39.058Z,55.47
2023-05-20T08:07:05.707Z,54.21
2023-05-20T08:09:34.476Z,53.84
2023-05-20T08:12:01.157Z,54.13
2023-05-20T08:14:27.773Z,54.29
2023-05-20T08:16:55.124Z,53.50
2023-05-20T08:19:21.867Z,52.92
2023-05-20T08:21:48.767Z,52.84
2023-05-20T08:24:17.723Z,52.41
2023-05-20T08:26:44.295Z,51.87
2023-05-20T08:29:11.254Z,51.14
2023-05-20T08:31:37.836Z,51.42
2023-05-20T08:34:04.618Z,51.23
2023-05-20T08:36:31.190Z,51.06
2023-05-20T08:38:57.788Z,50.95
2023-05-20T08:41:24.969Z,49.52
2023-05-20T08:43:52.312Z,48.16
2023-05-20T08:46:19.293Z,45.97
2023-05-20T08:48:45.949Z,44.70
2023-05-20T08:51:14.254Z,44.35
2023-05-20T08:53:40.877Z,43.23
2023-05-20T08:56:08.525Z,42.28
2023-05-20T08:58:35.161Z,42.10
2023-05-20T09:01:02.250Z,40.66
2023-05-20T09:03:28.868Z,41.28
2023-05-20T09:06:05.040Z,40.20
2023-05-20T09:08:31.788Z,39.44
2023-05-20T09:10:58.367Z,38.56
2023-05-20T09:13:24.933Z,38.93
2023-05-20T09:15:51.570Z,36.49
2023-05-20T09:18:18.317Z,36.23
2023-05-20T09:20:47.342Z,36.46
2023-05-20T09:23:13.889Z,36.71
2023-05-20T09:25:40.470Z,36.60
2023-05-20T09:28:10.296Z,37.08
2023-05-20T09:30:36.894Z,36.68
2023-05-20T09:33:04.963Z,36.71
2023-05-20T09:35:35.741Z,35.52
2023-05-20T09:38:03.510Z,36.01
2023-05-20T09:40:30.146Z,35.04
2023-05-20T09:43:05.168Z,34.95
2023-05-20T09:45:31.914Z,34.62
2023-05-20T09:48:00.063Z,35.07
2023-05-20T09:50:28.836Z,34.76
2023-05-20T09:52:55.909Z,34.49
2023-05-20T09:55:24.835Z,34.40
2023-05-20T09:57:52.003Z,34.21
2023-05-20T10:00:19.569Z,33.03
2023-05-20T10:02:51.651Z,33.16
2023-05-20T10:05:21.574Z,32.03
2023-05-20T10:07:57.633Z,32.99
2023-05-20T10:10:57.122Z,33.44
2023-05-20T10:13:54.611Z,32.07
2023-05-20T10:16:54.534Z,32.87
2023-05-20T10:19:23.837Z,31.98
2023-05-20T10:22:08.624Z,29.76
2023-05-20T10:24:41.261Z,29.59
2023-05-20T10:27:10.225Z,30.66
2023-05-20T10:29:57.453Z,29.91
2023-05-20T10:32:25.928Z,29.87
2023-05-20T10:34:52.960Z,29.71
2023-05-20T10:37:30.580Z,30.45
2023-05-20T10:40:07.196Z,30.56
2023-05-20T10:42:33.988Z,30.94
2023-05-20T10:45:00.545Z,31.03
2023-05-20T10:47:27.212Z,31.85
2023-05-20T10:49:53.876Z,31.13
2023-05-20T10:52:20.738Z,31.33
2023-05-20T10:54:50.989Z,30.99
2023-05-20T10:57:18.608Z,31.26
2023-05-20T10:59:45.179Z,30.52
2023-05-20T11:02:14.531Z,28.67
2023-05-20T11:04:43.274Z,28.98
2023-05-20T11:07:10.022Z,29.37
2023-05-20T11:09:36.807Z,31.54
2023-05-20T11:12:03.656Z,33.28
2023-05-20T11:14:30.435Z,32.03
2023-05-20T11:16:58.408Z,31.61
2023-05-20T11:19:28.118Z,30.24
2023-05-20T11:21:54.955Z,30.13
2023-05-20T11:24:26.995Z,30.96
2023-05-20T11:26:57.566Z,31.23
2023-05-20T11:29:26.670Z,29.89
2023-05-20T11:31:53.344Z,29.12
2023-05-20T11:34:25.765Z,29.67
2023-05-20T11:36:59.331Z,32.32
2023-05-20T11:39:29.601Z,32.65
2023-05-20T11:41:56.323Z,33.43
2023-05-20T11:44:22.848Z,32.35
2023-05-20T11:46:49.448Z,31.51
2023-05-20T11:49:16.539Z,30.63
2023-05-20T11:51:44.097Z,30.53
2023-05-20T11:54:10.761Z,29.51
2023-05-20T11:56:38.632Z,28.87
2023-05-20T11:59:06.531Z,29.11
2023-05-20T12:01:37.832Z,30.21
2023-05-20T12:04:05.599Z,30.06
2023-05-20T12:06:32.712Z,29.24
2023-05-20T12:09:05.361Z,29.04
2023-05-20T12:11:32.344Z,29.67
2023-05-20T12:13:58.877Z,30.43
2023-05-20T12:16:25.483Z,30.07
2023-05-20T12:18:52.128Z,31.31
2023-05-20T12:21:18.894Z,31.73
2023-05-20T12:23:45.595Z,30.64
2023-05-20T12:26:12.128Z,30.45
2023-05-20T12:28:38.675Z,29.49
2023-05-20T12:31:06.009Z,30.43
2023-05-20T12:33:32.555Z,30.93
2023-05-20T12:35:59.212Z,29.15
2023-05-20T12:38:25.938Z,28.79
2023-05-20T12:40:52.559Z,29.64
2023-05-20T12:43:19.110Z,28.95
2023-05-20T12:45:45.689Z,28.60
2023-05-20T12:48:12.268Z,28.69
2023-05-20T12:50:39.232Z,29.51
2023-05-20T12:53:05.804Z,30.13
2023-05-20T12:55:32.600Z,30.62
2023-05-20T12:57:59.133Z,30.82
2023-05-20T13:00:25.851Z,31.44
2023-05-20T13:02:52.979Z,31.66
2023-05-20T13:05:20.475Z,31.07
2023-05-20T13:07:47.133Z,29.11
2023-05-20T13:10:14.126Z,28.58
2023-05-20T13:12:45.825Z,29.67
2023-05-20T13:15:14.593Z,29.35
2023-05-20T13:17:42.678Z,27.91
2023-05-20T13:20:11.007Z,28.49
2023-05-20T13:22:38.006Z,28.60
2023-05-20T13:25:05.298Z,27.42
2023-05-20T13:27:31.927Z,28.43
2023-05-20T13:29:58.662Z,29.78
2023-05-20T13:32:25.376Z,30.61
2023-05-20T13:34:52.032Z,31.24
2023-05-20T13:37:18.668Z,31.89
2023-05-20T13:39:45.233Z,32.67
2023-05-20T13:42:11.837Z,32.76
2023-05-20T13:44:38.532Z,33.27
2023-05-20T13:47:05.294Z,32.36
2023-05-20T13:49:31.875Z,31.39
2023-05-20T13:51:58.466Z,30.82
2023-05-20T13:54:25.305Z,31.84
2023-05-20T13:56:53.193Z,32.69
2023-05-20T13:59:20.459Z,33.00
2023-05-20T14:01:47.389Z,32.09
2023-05-20T14:04:14.140Z,31.92
2023-05-20T14:06:40.933Z,31.90
2023-05-20T14:09:09.176Z,32.07
2023-05-20T14:11:35.881Z,31.52
2023-05-20T14:14:02.447Z,31.60
2023-05-20T14:16:29.131Z,31.30
2023-05-20T14:18:55.892Z,31.29
2023-05-20T14:21:22.546Z,31.85
2023-05-20T14:23:49.546Z,32.09
2023-05-20T14:26:16.156Z,32.65
2023-05-20T14:28:42.790Z,32.51
2023-05-20T14:31:10.778Z,33.22
2023-05-20T14:33:37.374Z,32.95
2023-05-20T14:36:04.267Z,34.17
2023-05-20T14:38:30.983Z,33.70
2023-05-20T14:40:57.567Z,33.56
2023-05-20T14:43:24.153Z,34.35
2023-05-20T14:45:50.767Z,34.32
2023-05-20T14:48:17.320Z,34.15
2023-05-20T14:50:43.884Z,34.29
2023-05-20T14:53:10.507Z,33.90
2023-05-20T14:55:37.136Z,34.02
2023-05-20T14:58:03.674Z,31.82
2023-05-20T15:00:30.258Z,30.87
2023-05-20T15:02:56.949Z,29.54
2023-05-20T15:05:23.629Z,29.57
2023-05-20T15:07:51.477Z,30.34
2023-05-20T15:10:18.022Z,31.39
2023-05-20T15:12:45.055Z,32.19
2023-05-20T15:15:11.727Z,32.00
2023-05-20T15:17:38.336Z,31.21
2023-05-20T15:20:05.449Z,30.12
2023-05-20T15:22:32.324Z,31.03
2023-05-20T15:24:58.904Z,31.04
2023-05-20T15:27:25.755Z,31.26
2023-05-20T15:29:52.417Z,32.33
2023-05-20T15:32:20.009Z,33.42
2023-05-20T15:34:46.553Z,33.62
2023-05-20T15:37:13.163Z,34.69
2023-05-20T15:39:39.808Z,35.07
2023-05-20T15:42:06.609Z,35.03
2023-05-20T15:44:33.592Z,33.84
2023-05-20T15:47:00.201Z,32.29
2023-05-20T15:49:26.854Z,31.19
2023-05-20T15:52:02.834Z,30.10
2023-05-20T15:54:30.949Z,28.69
2023-05-20T15:56:58.092Z,29.60
2023-05-20T15:59:24.796Z,29.15
2023-05-20T16:01:51.497Z,28.54
2023-05-20T16:04:19.006Z,29.74
2023-05-20T16:06:46.010Z,28.81
2023-05-20T16:09:12.575Z,27.98
2023-05-20T16:11:39.192Z,28.54
2023-05-20T16:14:06.005Z,28.26
2023-05-20T16:16:35.034Z,28.73
2023-05-20T16:19:02.699Z,28.74
2023-05-20T16:21:29.298Z,28.89
2023-05-20T16:23:55.864Z,28.19
2023-05-20T16:26:23.079Z,27.38
2023-05-20T16:28:49.689Z,27.46
2023-05-20T16:31:16.338Z,27.09
2023-05-20T16:33:43.043Z,27.16
2023-05-20T16:36:09.666Z,27.77
2023-05-20T16:38:36.550Z,29.25
2023-05-20T16:41:03.159Z,30.09
2023-05-20T16:43:30.477Z,31.27
2023-05-20T16:45:57.163Z,31.30
2023-05-20T16:48:23.881Z,29.40
2023-05-20T16:50:50.567Z,29.99
2023-05-20T16:53:17.135Z,30.88
2023-05-20T16:55:43.734Z,31.26
2023-05-20T16:58:10.567Z,32.42
2023-05-20T17:00:37.287Z,32.61
2023-05-20T17:03:04.220Z,33.83
2023-05-20T17:05:31.164Z,34.52
2023-05-20T17:08:00.117Z,34.02
2023-05-20T17:10:28.542Z,33.44
2023-05-20T17:12:55.487Z,33.18
2023-05-20T17:15:23.659Z,34.17
2023-05-20T17:17:50.587Z,33.77
2023-05-20T17:20:17.344Z,34.98
2023-05-20T17:22:43.974Z,35.19
2023-05-20T17:25:10.859Z,36.55
2023-05-20T17:27:37.648Z,37.69
2023-05-20T17:30:04.601Z,38.88
2023-05-20T17:32:31.263Z,39.90
2023-05-20T17:34:57.905Z,39.85
2023-05-20T17:37:24.555Z,39.77
2023-05-20T17:39:51.101Z,40.52
2023-05-20T17:42:17.632Z,41.29
2023-05-20T17:44:44.189Z,41.75
2023-05-20T17:47:10.961Z,43.28
2023-05-20T17:49:37.602Z,44.03
2023-05-20T17:52:04.416Z,44.14
2023-05-20T17:54:31.093Z,43.63
2023-05-20T17:56:57.705Z,44.45
2023-05-20T17:59:24.645Z,46.18
2023-05-20T18:01:51.588Z,46.60
2023-05-20T18:04:18.466Z,47.55
2023-05-20T18:06:45.237Z,46.94
2023-05-20T18:09:12.136Z,47.74
2023-05-20T18:11:39.168Z,48.08
2023-05-20T18:14:05.978Z,48.37
2023-05-20T18:16:32.694Z,47.83
2023-05-20T18:18:59.397Z,48.41
2023-05-20T18:21:26.417Z,48.38
2023-05-20T18:23:53.075Z,48.75
2023-05-20T18:26:19.840Z,48.90
2023-05-20T18:28:46.554Z,48.92
2023-05-20T18:31:13.222Z,49.81
2023-05-20T18:33:40.978Z,50.28
2023-05-20T18:36:07.792Z,50.70
2023-05-20T18:38:34.615Z,51.07
2023-05-20T18:41:01.539Z,51.61
2023-05-20T18:43:28.220Z,51.75
2023-05-20T18:45:54.918Z,51.98
2023-05-20T18:48:26.488Z,52.13
2023-05-20T18:50:53.633Z,52.98
2023-05-20T18:53:20.227Z,53.90
2023-05-20T18:55:47.393Z,53.28
2023-05-20T18:58:14.255Z,54.20
2023-05-20T19:00:41.311Z,55.01
2023-05-20T19:03:07.955Z,54.64
2023-05-20T19:05:34.838Z,54.97
2023-05-20T19:08:02.848Z,55.19
2023-05-20T19:10:29.663Z,55.41
2023-05-20T19:12:56.613Z,56.01
2023-05-20T19:15:23.233Z,56.09
2023-05-20T19:17:49.893Z,56.60
2023-05-20T19:20:16.610Z,56.54
2023-05-20T19:22:43.242Z,56.92
2023-05-20T19:25:09.977Z,57.14
2023-05-20T19:27:36.749Z,57.63
2023-05-20T19:30:04.165Z,58.07
2023-05-20T19:32:30.754Z,58.12
2023-05-20T19:34:57.530Z,58.22
2023-05-20T19:37:24.184Z,57.83
2023-05-20T19:39:50.914Z,58.37
2023-05-20T19:42:17.594Z,58.45
2023-05-20T19:44:46.558Z,58.98
2023-05-20T19:47:13.256Z,59.22
2023-05-20T19:49:39.957Z,58.90
2023-05-20T19:52:07.042Z,58.93
2023-05-20T19:54:33.888Z,59.22
2023-05-20T19:57:00.467Z,59.49
2023-05-20T19:59:27.046Z,59.77
2023-05-20T20:01:53.723Z,59.95
2023-05-20T20:04:20.461Z,60.11
2023-05-20T20:06:48.289Z,60.16
2023-05-20T20:09:15.278Z,60.14
2023-05-20T20:11:43.297Z,60.22
2023-05-20T20:14:10.193Z,60.59
2023-05-20T20:16:36.946Z,60.68
2023-05-20T20:19:04.804Z,60.92
2023-05-20T20:21:31.456Z,61.02
2023-05-20T20:23:58.089Z,61.11
2023-05-20T20:26:25.990Z,61.46
2023-05-20T20:28:52.762Z,61.43
2023-05-20T20:31:19.549Z,61.79
2023-05-20T20:33:47.477Z,62.17
2023-05-20T20:36:14.243Z,62.17
2023-05-20T20:38:47.087Z,62.42
2023-05-20T20:41:16.139Z,62.52
2023-05-20T20:43:45.474Z,62.44
2023-05-20T20:46:15.559Z,62.53
2023-05-20T20:48:45.862Z,62.65
2023-05-20T20:51:16.493Z,63.04
2023-05-20T20:53:43.503Z,63.13
2023-05-20T20:56:10.148Z,63.36
2023-05-20T20:58:37.706Z,63.20
2023-05-20T21:01:05.719Z,63.75
2023-05-20T21:03:37.136Z,63.74
2023-05-20T21:06:03.893Z,63.75
2023-05-20T21:08:31.891Z,63.77
2023-05-20T21:10:59.446Z,64.12
2023-05-20T21:13:29.862Z,64.18
2023-05-20T21:15:56.586Z,64.65
2023-05-20T21:18:23.968Z,64.52
2023-05-20T21:20:52.446Z,64.57
2023-05-20T21:23:20.277Z,64.82
2023-05-20T21:25:47.446Z,65.01
2023-05-20T21:28:14.171Z,65.36
2023-05-20T21:30:40.781Z,65.41
2023-05-20T21:33:07.350Z,65.31
2023-05-20T21:35:34.088Z,65.31
2023-05-20T21:38:00.852Z,65.37
2023-05-20T21:40:27.433Z,66.20
2023-05-20T21:42:54.183Z,66.04
2023-05-20T21:45:20.759Z,66.42
2023-05-20T21:47:47.376Z,66.34
2023-05-20T21:50:14.029Z,66.43
2023-05-20T21:52:40.938Z,66.24
2023-05-20T21:55:09.469Z,66.78
2023-05-20T21:57:36.350Z,67.02
2023-05-20T22:00:06.728Z,66.96
2023-05-20T22:02:33.343Z,67.32
2023-05-20T22:05:00.445Z,67.29
2023-05-20T22:07:27.086Z,67.78
2023-05-20T22:09:54.137Z,67.90
2023-05-20T22:12:20.696Z,67.88
2023-05-20T22:14:47.294Z,67.90
2023-05-20T22:17:13.946Z,68.21
2023-05-20T22:19:41.496Z,68.32
2023-05-20T22:22:08.135Z,68.69
2023-05-20T22:24:34.671Z,68.76
2023-05-20T22:27:01.710Z,68.80
2023-05-20T22:29:28.242Z,69.08
2023-05-20T22:31:54.787Z,68.60
2023-05-20T22:34:21.398Z,68.63
2023-05-20T22:36:49.096Z,68.94
2023-05-20T22:39:15.653Z,68.43
2023-05-20T22:41:42.264Z,69.00
2023-05-20T22:44:08.805Z,68.95
2023-05-20T22:46:35.744Z,68.74
2023-05-20T22:49:02.459Z,69.16
2023-05-20T22:51:29.334Z,69.77
2023-05-20T22:53:56.335Z,69.67
2023-05-20T22:56:23.624Z,69.67
2023-05-20T22:58:50.472Z,69.82
2023-05-20T23:01:17.202Z,69.77
2023-05-20T23:03:46.895Z,70.00
2023-05-20T23:06:13.484Z,70.29
2023-05-20T23:08:42.830Z,70.24
2023-05-20T23:11:09.384Z,70.27
2023-05-20T23:13:35.898Z,70.29
2023-05-20T23:16:02.464Z,70.91
2023-05-20T23:18:29.085Z,71.04
2023-05-20T23:20:55.877Z,71.22
2023-05-20T23:23:30.653Z,71.45
2023-05-20T23:25:58.914Z,71.57
2023-05-20T23:28:26.029Z,71.62
2023-05-20T23:30:52.708Z,71.62
2023-05-20T23:33:24.369Z,71.77
2023-05-20T23:35:51.754Z,71.89
2023-05-20T23:38:18.717Z,72.19
2023-05-20T23:40:45.347Z,72.19
2023-05-20T23:43:11.937Z,73.05
2023-05-20T23:45:38.452Z,72.87
2023-05-20T23:48:05.714Z,73.09
2023-05-20T23:50:32.746Z,73.07
2023-05-20T23:52:59.629Z,73.50
2023-05-20T23:55:28.354Z,73.79
2023-05-20T23:57:55.089Z,73.85
